Terminal Aerodrome Forecast
Issued by NWS Cleveland, OH

Home | Current Version | Previous Version | Graphics & Text | Print | Product List | Glossary On
Versions: 1 2 3 4 5 6 7 8 9 10 11 12 13 14 15
000
FTUS41 KCLE 221736
TAFTOL
TAF
KTOL 221736Z 2218/2318 23006KT P6SM SCT200
     FM230100 VRB03KT P6SM BKN200
      TEMPO 2309/2313 00000KT 4SM BR SCT150
     FM231400 04008KT P6SM BKN040=

USA.gov is the U.S. government's official web portal to all federal, state and local government web resources and services.